createdAt,value
2023-03-17T09:26:27.589Z,27.85
2023-03-17T09:28:53.935Z,27.89
2023-03-17T09:31:20.362Z,27.83
2023-03-17T09:33:46.659Z,27.82
2023-03-17T09:36:13.104Z,27.86
2023-03-17T09:38:39.394Z,27.94
2023-03-17T09:41:05.812Z,27.77
2023-03-17T09:43:32.194Z,28.06
2023-03-17T09:45:58.579Z,28.16
2023-03-17T09:48:24.914Z,28.22
2023-03-17T09:50:51.312Z,28.21
2023-03-17T09:53:17.682Z,28.14
2023-03-17T09:55:44.058Z,27.98
2023-03-17T09:58:10.417Z,27.94
2023-03-17T10:00:36.796Z,27.54
2023-03-17T10:03:03.156Z,28.06
2023-03-17T10:05:30.173Z,28.17
2023-03-17T10:07:55.881Z,28.04
2023-03-17T10:10:22.345Z,28.04
2023-03-17T10:12:48.635Z,27.99
2023-03-17T10:15:15.554Z,28.09
2023-03-17T10:17:42.604Z,28.29
2023-03-17T10:20:07.788Z,28.52
2023-03-17T10:22:34.128Z,28.58
2023-03-17T10:25:03.402Z,28.49
2023-03-17T10:27:26.906Z,28.25
2023-03-17T10:29:53.297Z,28.17
2023-03-17T10:32:19.667Z,27.95
2023-03-17T10:34:46.391Z,26.83
2023-03-17T10:37:12.742Z,27.52
2023-03-17T10:39:39.218Z,27.88
2023-03-17T10:42:05.569Z,27.65
2023-03-17T10:44:31.989Z,27.56
2023-03-17T10:46:58.393Z,27.66
2023-03-17T10:49:24.712Z,28.05
2023-03-17T10:51:51.096Z,27.73
2023-03-17T10:54:17.506Z,27.37
2023-03-17T10:56:43.844Z,27.36
2023-03-17T10:59:10.302Z,27.56
2023-03-17T11:01:36.630Z,27.11
2023-03-17T11:04:03.712Z,27.19
2023-03-17T11:06:30.031Z,27.09
2023-03-17T11:08:56.475Z,26.68
2023-03-17T11:11:22.881Z,27.12
2023-03-17T11:13:49.271Z,27.15
2023-03-17T11:16:15.666Z,27.75
2023-03-17T11:18:42.015Z,27.41
2023-03-17T11:21:08.388Z,27.33
2023-03-17T11:23:34.801Z,27.18
2023-03-17T11:26:01.145Z,26.53
2023-03-17T11:28:27.541Z,27.21
2023-03-17T11:30:53.897Z,26.47
2023-03-17T11:33:20.297Z,26.46
2023-03-17T11:35:46.696Z,26.56
2023-03-17T11:38:13.071Z,26.38
2023-03-17T11:40:39.403Z,26.34
2023-03-17T11:43:05.809Z,26.38
2023-03-17T11:45:32.159Z,26.91
2023-03-17T11:47:59.953Z,27.18
2023-03-17T11:50:24.932Z,27.44
2023-03-17T11:52:51.336Z,27.33
2023-03-17T11:55:17.708Z,27.05
2023-03-17T11:57:44.127Z,27.12
2023-03-17T12:00:10.443Z,27.02
2023-03-17T12:02:36.905Z,27.25
2023-03-17T12:05:03.207Z,27.32
2023-03-17T12:07:29.599Z,27.36
2023-03-17T12:09:55.947Z,26.82
2023-03-17T12:12:22.343Z,26.32
2023-03-17T12:14:48.739Z,27.02
2023-03-17T12:17:15.118Z,27.13
2023-03-17T12:19:41.461Z,27.40
2023-03-17T12:22:07.850Z,27.48
2023-03-17T12:24:34.206Z,27.60
2023-03-17T12:27:00.663Z,27.59
2023-03-17T12:29:27.024Z,27.61
2023-03-17T12:31:53.421Z,27.75
2023-03-17T12:34:19.785Z,27.64
2023-03-17T12:36:46.218Z,27.40
2023-03-17T12:39:12.593Z,27.68
2023-03-17T12:41:39.043Z,28.15
2023-03-17T12:44:05.419Z,27.89
2023-03-17T12:46:31.838Z,27.91
2023-03-17T12:48:58.162Z,28.24
2023-03-17T12:51:24.557Z,28.37
2023-03-17T12:53:50.896Z,28.44
2023-03-17T12:56:17.291Z,28.34
2023-03-17T12:58:43.663Z,28.47
2023-03-17T13:01:10.032Z,28.36
2023-03-17T13:03:36.372Z,28.31
2023-03-17T13:06:04.156Z,28.37
2023-03-17T13:08:29.094Z,28.43
2023-03-17T13:10:55.527Z,28.28
2023-03-17T13:13:21.884Z,28.40
2023-03-17T13:15:48.329Z,28.46
2023-03-17T13:18:14.617Z,28.51
2023-03-17T13:20:41.010Z,28.59
2023-03-17T13:23:07.358Z,28.60
2023-03-17T13:25:33.996Z,28.50
2023-03-17T13:28:00.121Z,28.55
2023-03-17T13:30:26.585Z,28.37
2023-03-17T13:32:52.971Z,28.28
2023-03-17T13:35:19.315Z,28.34
2023-03-17T13:37:48.115Z,28.39
2023-03-17T13:40:14.495Z,28.13
2023-03-17T13:42:40.831Z,28.30
2023-03-17T13:45:07.219Z,28.34
2023-03-17T13:47:33.555Z,28.20
2023-03-17T13:49:59.948Z,28.17
2023-03-17T13:52:26.282Z,28.06
2023-03-17T13:54:52.693Z,28.07
2023-03-17T13:57:19.065Z,28.24
2023-03-17T13:59:45.525Z,28.19
2023-03-17T14:02:11.842Z,28.14
2023-03-17T14:04:38.236Z,28.11
2023-03-17T14:07:04.674Z,28.02
2023-03-17T14:09:31.049Z,28.04
2023-03-17T14:11:57.389Z,28.05
2023-03-17T14:14:32.495Z,28.01
2023-03-17T14:16:50.115Z,27.95
2023-03-17T14:19:16.581Z,27.72
2023-03-17T14:21:42.959Z,27.71
2023-03-17T14:24:09.339Z,27.65
2023-03-17T14:26:35.688Z,27.69
2023-03-17T14:29:02.064Z,27.76
2023-03-17T14:31:28.442Z,27.76
2023-03-17T14:33:54.797Z,27.74
2023-03-17T14:36:21.157Z,27.86
2023-03-17T14:38:47.531Z,27.94
2023-03-17T14:41:13.876Z,28.13
2023-03-17T14:43:40.311Z,28.11
2023-03-17T14:46:06.645Z,28.18
2023-03-17T14:48:32.996Z,28.21
2023-03-17T14:50:59.343Z,28.16
2023-03-17T14:53:25.809Z,28.18
2023-03-17T14:55:52.165Z,28.00
2023-03-17T14:58:18.538Z,28.02
2023-03-17T15:00:44.950Z,28.25
2023-03-17T15:03:11.333Z,28.33
2023-03-17T15:05:37.717Z,28.48
2023-03-17T15:08:04.144Z,28.37
2023-03-17T15:10:30.798Z,28.31
2023-03-17T15:12:56.884Z,28.18
2023-03-17T15:15:23.255Z,27.97
2023-03-17T15:17:49.613Z,28.02
2023-03-17T15:20:15.958Z,27.88
2023-03-17T15:22:42.355Z,27.85
2023-03-17T15:25:08.699Z,27.67
2023-03-17T15:27:35.090Z,27.54
2023-03-17T15:30:01.431Z,27.34
2023-03-17T15:32:27.846Z,27.35
2023-03-17T15:34:54.159Z,27.48
2023-03-17T15:37:20.556Z,27.55
2023-03-17T15:39:46.897Z,27.66
2023-03-17T15:42:13.281Z,27.75
2023-03-17T15:44:39.622Z,27.72
2023-03-17T15:47:06.001Z,27.46
2023-03-17T15:49:32.403Z,27.42
2023-03-17T15:51:58.710Z,27.44
2023-03-17T15:54:25.065Z,27.24
2023-03-17T15:56:51.484Z,27.23
2023-03-17T15:59:17.807Z,27.18
2023-03-17T16:01:44.511Z,27.15
2023-03-17T16:04:10.824Z,27.18
2023-03-17T16:06:37.169Z,27.11
2023-03-17T16:09:03.501Z,27.16
2023-03-17T16:11:29.928Z,27.21
2023-03-17T16:13:56.315Z,27.37
2023-03-17T16:16:22.785Z,27.44
2023-03-17T16:18:48.978Z,27.45
2023-03-17T16:21:15.364Z,27.57
2023-03-17T16:23:41.730Z,27.37
2023-03-17T16:26:15.528Z,27.43
2023-03-17T16:28:34.476Z,27.49
2023-03-17T16:31:00.942Z,27.47
2023-03-17T16:33:27.203Z,27.37
2023-03-17T16:35:53.687Z,27.02
2023-03-17T16:38:19.949Z,27.06
2023-03-17T16:40:46.323Z,27.34
2023-03-17T16:43:24.308Z,27.33
2023-03-17T16:45:39.096Z,27.47
2023-03-17T16:48:05.448Z,27.50
2023-03-17T16:50:32.078Z,27.42
2023-03-17T16:52:58.209Z,27.57
2023-03-17T16:55:24.610Z,27.44
2023-03-17T16:57:50.952Z,27.70
2023-03-17T17:00:17.357Z,27.66
2023-03-17T17:02:43.714Z,27.35
2023-03-17T17:05:10.098Z,27.32
2023-03-17T17:07:36.446Z,27.53
2023-03-17T17:10:02.813Z,27.65
2023-03-17T17:12:29.138Z,27.54
2023-03-17T17:14:55.525Z,27.54
2023-03-17T17:17:21.861Z,27.41
2023-03-17T17:19:48.255Z,27.25
2023-03-17T17:22:14.598Z,27.47
2023-03-17T17:24:40.988Z,27.28
2023-03-17T17:27:07.370Z,27.18
2023-03-17T17:29:33.752Z,27.14
2023-03-17T17:32:00.135Z,27.20
2023-03-17T17:34:26.485Z,27.32
2023-03-17T17:36:52.883Z,27.60
2023-03-17T17:39:19.279Z,27.82
2023-03-17T17:41:45.631Z,28.02
2023-03-17T17:44:12.035Z,28.11
2023-03-17T17:46:38.406Z,28.09
2023-03-17T17:49:04.770Z,27.88
2023-03-17T17:51:31.124Z,27.77
2023-03-17T17:53:57.512Z,27.63
2023-03-17T17:56:23.850Z,27.72
2023-03-17T17:58:50.238Z,27.61
2023-03-17T18:01:16.657Z,27.50
2023-03-17T18:03:43.195Z,27.32
2023-03-17T18:06:09.310Z,27.28
2023-03-17T18:08:35.698Z,27.18
2023-03-17T18:11:02.040Z,27.12
2023-03-17T18:13:28.423Z,27.03
2023-03-17T18:15:54.775Z,27.02
2023-03-17T18:18:21.147Z,27.25
2023-03-17T18:23:22.748Z,27.82
2023-03-17T18:25:49.135Z,27.92
2023-03-17T18:28:15.472Z,27.84
2023-03-17T18:30:44.405Z,27.82
2023-03-17T18:33:08.233Z,27.96
2023-03-17T18:35:34.616Z,27.78
2023-03-17T18:38:00.919Z,27.63
2023-03-17T18:40:27.307Z,27.74
2023-03-17T18:42:53.650Z,27.83
2023-03-17T18:45:21.266Z,27.95
2023-03-17T18:47:46.365Z,28.17
2023-03-17T18:50:12.736Z,28.00
2023-03-17T18:52:40.283Z,27.82
2023-03-17T18:55:05.506Z,27.75
2023-03-17T18:57:31.859Z,27.65
2023-03-17T18:59:58.272Z,27.62
2023-03-17T19:02:24.606Z,27.79
2023-03-17T19:04:51.021Z,27.95
2023-03-17T19:07:17.394Z,28.24
2023-03-17T19:09:43.751Z,28.28
2023-03-17T19:12:10.081Z,28.37
2023-03-17T19:14:36.467Z,28.53
2023-03-17T19:17:02.808Z,28.56
2023-03-17T19:19:29.211Z,28.47
2023-03-17T19:21:56.121Z,28.41
2023-03-17T19:24:22.531Z,28.42
2023-03-17T19:26:48.865Z,28.63
2023-03-17T19:29:15.249Z,28.59
2023-03-17T19:31:41.646Z,28.76
2023-03-17T19:34:08.004Z,28.73
2023-03-17T19:36:34.337Z,28.83
2023-03-17T19:39:00.726Z,28.92
2023-03-17T19:41:27.052Z,28.97
2023-03-17T19:43:53.434Z,29.03
2023-03-17T19:46:19.876Z,29.03
2023-03-17T19:48:46.154Z,29.15
2023-03-17T19:51:12.522Z,29.22
2023-03-17T19:53:38.876Z,29.24
2023-03-17T19:56:05.282Z,29.33
2023-03-17T19:58:31.609Z,29.38
2023-03-17T20:00:57.984Z,29.41
2023-03-17T20:03:26.169Z,29.48
2023-03-17T20:05:50.707Z,29.53
2023-03-17T20:08:17.052Z,29.62
2023-03-17T20:10:43.427Z,29.63
2023-03-17T20:13:09.779Z,29.71
2023-03-17T20:15:36.220Z,29.77
2023-03-17T20:18:02.532Z,29.80
2023-03-17T20:20:29.209Z,29.88
2023-03-17T20:22:55.257Z,29.88
2023-03-17T20:25:21.650Z,29.95
2023-03-17T20:27:47.987Z,29.98
2023-03-17T20:30:14.401Z,30.00
2023-03-17T20:32:40.881Z,30.00
2023-03-17T20:35:08.108Z,30.09
2023-03-17T20:37:33.552Z,30.00
2023-03-17T20:39:59.937Z,30.07
2023-03-17T20:42:26.297Z,30.10
2023-03-17T20:44:52.687Z,30.15
2023-03-17T20:47:19.059Z,30.22
2023-03-17T20:49:45.461Z,30.34
2023-03-17T20:52:11.806Z,30.34
2023-03-17T20:54:38.180Z,30.36
2023-03-17T20:57:04.523Z,30.38
2023-03-17T20:59:30.968Z,30.37
2023-03-17T21:01:57.309Z,30.44
2023-03-17T21:04:23.674Z,30.42
2023-03-17T21:06:50.052Z,30.58
2023-03-17T21:09:16.427Z,30.65
2023-03-17T21:11:42.777Z,30.68
2023-03-17T21:14:09.142Z,30.77
2023-03-17T21:16:35.591Z,30.78
2023-03-17T21:19:01.871Z,30.80
2023-03-17T21:21:28.207Z,30.84
2023-03-17T21:23:54.590Z,30.87
2023-03-17T21:26:20.973Z,30.91
2023-03-17T21:28:47.346Z,30.93
2023-03-17T21:31:13.780Z,30.94
2023-03-17T21:33:40.144Z,30.98
2023-03-17T21:36:06.508Z,30.96
2023-03-17T21:38:32.842Z,31.00
2023-03-17T21:40:59.188Z,31.03
2023-03-17T21:43:25.560Z,30.98
2023-03-17T21:45:53.872Z,31.06
2023-03-17T21:48:18.298Z,31.06
2023-03-17T21:50:44.683Z,31.11
2023-03-17T21:53:11.030Z,31.08
2023-03-17T21:55:37.374Z,31.07
2023-03-17T21:58:05.403Z,31.11
2023-03-17T22:00:42.526Z,31.13
2023-03-17T22:02:56.572Z,31.18
2023-03-17T22:05:22.840Z,31.20
2023-03-17T22:07:49.221Z,31.21
2023-03-17T22:10:16.894Z,31.25
2023-03-17T22:12:41.992Z,31.24
2023-03-17T22:15:08.346Z,31.32
2023-03-17T22:17:34.736Z,31.34
2023-03-17T22:20:01.078Z,31.35
2023-03-17T22:22:27.459Z,31.35
2023-03-17T22:24:53.807Z,31.40
2023-03-17T22:27:20.187Z,31.40
2023-03-17T22:29:46.532Z,31.42
2023-03-17T22:32:12.958Z,31.46
2023-03-17T22:34:39.304Z,31.49
2023-03-17T22:37:05.739Z,31.50
2023-03-17T22:39:32.033Z,31.57
2023-03-17T22:41:58.421Z,31.59
2023-03-17T22:44:24.766Z,31.59
2023-03-17T22:46:51.150Z,31.61
2023-03-17T22:49:17.529Z,31.67
2023-03-17T22:51:43.920Z,31.69
2023-03-17T22:54:10.257Z,31.69
2023-03-17T22:56:36.669Z,31.71
2023-03-17T22:59:03.029Z,31.77
2023-03-17T23:01:29.439Z,31.79
2023-03-17T23:03:55.778Z,31.78
2023-03-17T23:06:22.134Z,31.78
2023-03-17T23:08:48.513Z,31.86
2023-03-17T23:11:14.900Z,31.88
2023-03-17T23:13:41.247Z,31.93
2023-03-17T23:16:07.618Z,31.93
2023-03-17T23:18:33.962Z,32.01
2023-03-17T23:21:00.351Z,32.01
2023-03-17T23:23:26.689Z,32.04
2023-03-17T23:25:53.075Z,32.10
2023-03-17T23:28:19.425Z,32.11
2023-03-17T23:30:46.096Z,32.11
2023-03-17T23:33:12.308Z,32.15
2023-03-17T23:35:38.567Z,32.19
2023-03-17T23:38:04.872Z,32.21
2023-03-17T23:40:31.569Z,32.24
2023-03-17T23:42:57.609Z,32.26
2023-03-17T23:45:24.001Z,32.27
2023-03-17T23:47:50.338Z,32.30
2023-03-17T23:50:16.726Z,32.32
2023-03-17T23:52:43.063Z,32.39
2023-03-17T23:55:09.481Z,32.37
2023-03-17T23:57:35.817Z,32.40
